sensor_id;sensor_type;location;lat;lon;timestamp;temperature;humidity
23719;DHT22;43322;52.230;5.702;2024-03-08T00:01:36;2.80;73.20
23719;DHT22;43322;52.230;5.702;2024-03-08T00:04:03;2.60;78.00
23719;DHT22;43322;52.230;5.702;2024-03-08T00:06:31;2.60;83.30
23719;DHT22;43322;52.230;5.702;2024-03-08T00:08:59;2.70;88.80
23719;DHT22;43322;52.230;5.702;2024-03-08T00:11:26;2.60;91.00
23719;DHT22;43322;52.230;5.702;2024-03-08T00:13:53;2.80;81.20
23719;DHT22;43322;52.230;5.702;2024-03-08T00:16:20;2.80;78.20
23719;DHT22;43322;52.230;5.702;2024-03-08T00:18:48;2.70;72.10
23719;DHT22;43322;52.230;5.702;2024-03-08T00:21:15;2.70;58.30
23719;DHT22;43322;52.230;5.702;2024-03-08T00:23:42;2.70;52.80
23719;DHT22;43322;52.230;5.702;2024-03-08T00:26:11;2.60;42.80
23719;DHT22;43322;52.230;5.702;2024-03-08T00:28:37;2.80;38.20
23719;DHT22;43322;52.230;5.702;2024-03-08T00:31:04;2.70;39.60
23719;DHT22;43322;52.230;5.702;2024-03-08T00:33:32;2.60;37.60
23719;DHT22;43322;52.230;5.702;2024-03-08T00:35:59;2.60;38.20
23719;DHT22;43322;52.230;5.702;2024-03-08T00:38:26;2.60;34.50
23719;DHT22;43322;52.230;5.702;2024-03-08T00:40:53;2.60;28.70
23719;DHT22;43322;52.230;5.702;2024-03-08T00:43:23;2.60;20.80
23719;DHT22;43322;52.230;5.702;2024-03-08T00:45:50;2.60;16.80
23719;DHT22;43322;52.230;5.702;2024-03-08T00:48:17;2.60;11.20
23719;DHT22;43322;52.230;5.702;2024-03-08T00:50:44;2.40;15.80
23719;DHT22;43322;52.230;5.702;2024-03-08T00:53:11;2.50;17.30
23719;DHT22;43322;52.230;5.702;2024-03-08T00:55:38;2.50;15.80
23719;DHT22;43322;52.230;5.702;2024-03-08T00:58:05;2.60;14.20
23719;DHT22;43322;52.230;5.702;2024-03-08T01:00:33;2.40;13.30
23719;DHT22;43322;52.230;5.702;2024-03-08T01:03:00;2.50;13.60
23719;DHT22;43322;52.230;5.702;2024-03-08T01:05:29;2.40;15.80
23719;DHT22;43322;52.230;5.702;2024-03-08T01:07:55;2.30;19.90
23719;DHT22;43322;52.230;5.702;2024-03-08T01:10:22;2.40;21.20
23719;DHT22;43322;52.230;5.702;2024-03-08T01:12:49;2.50;23.10
23719;DHT22;43322;52.230;5.702;2024-03-08T01:15:16;2.40;24.40
23719;DHT22;43322;52.230;5.702;2024-03-08T01:17:44;2.30;21.80
23719;DHT22;43322;52.230;5.702;2024-03-08T01:20:12;2.20;22.40
23719;DHT22;43322;52.230;5.702;2024-03-08T01:22:38;2.20;21.70
23719;DHT22;43322;52.230;5.702;2024-03-08T01:25:06;2.20;22.60
23719;DHT22;43322;52.230;5.702;2024-03-08T01:27:34;2.10;29.40
23719;DHT22;43322;52.230;5.702;2024-03-08T01:30:02;2.50;21.20
23719;DHT22;43322;52.230;5.702;2024-03-08T01:32:30;2.20;7.90
23719;DHT22;43322;52.230;5.702;2024-03-08T01:34:58;2.30;7.30
23719;DHT22;43322;52.230;5.702;2024-03-08T01:37:25;2.60;8.30
23719;DHT22;43322;52.230;5.702;2024-03-08T01:42:18;2.20;1.60
23719;DHT22;43322;52.230;5.702;2024-03-08T01:44:45;2.30;1.00
23719;DHT22;43322;52.230;5.702;2024-03-08T01:47:12;2.40;7.70
23719;DHT22;43322;52.230;5.702;2024-03-08T01:49:39;2.30;1.10
23719;DHT22;43322;52.230;5.702;2024-03-08T01:52:07;2.30;1.30
23719;DHT22;43322;52.230;5.702;2024-03-08T01:54:35;1.50;5.20
23719;DHT22;43322;52.230;5.702;2024-03-08T01:57:02;2.20;12.20
23719;DHT22;43322;52.230;5.702;2024-03-08T01:59:29;2.00;10.20
23719;DHT22;43322;52.230;5.702;2024-03-08T02:02:01;2.20;12.40
23719;DHT22;43322;52.230;5.702;2024-03-08T02:04:28;2.10;11.40
23719;DHT22;43322;52.230;5.702;2024-03-08T02:06:56;2.10;14.10
23719;DHT22;43322;52.230;5.702;2024-03-08T02:09:25;2.10;20.70
23719;DHT22;43322;52.230;5.702;2024-03-08T02:11:51;2.00;24.90
23719;DHT22;43322;52.230;5.702;2024-03-08T02:14:20;2.70;31.70
23719;DHT22;43322;52.230;5.702;2024-03-08T02:16:47;1.80;31.60
23719;DHT22;43322;52.230;5.702;2024-03-08T02:19:13;1.90;31.00
23719;DHT22;43322;52.230;5.702;2024-03-08T02:21:41;1.80;34.50
23719;DHT22;43322;52.230;5.702;2024-03-08T02:24:08;1.90;36.20
23719;DHT22;43322;52.230;5.702;2024-03-08T02:26:34;1.90;38.10
23719;DHT22;43322;52.230;5.702;2024-03-08T02:29:01;1.90;30.30
23719;DHT22;43322;52.230;5.702;2024-03-08T02:31:28;1.80;28.80
23719;DHT22;43322;52.230;5.702;2024-03-08T02:33:55;1.80;30.10
23719;DHT22;43322;52.230;5.702;2024-03-08T02:36:22;1.80;26.00
23719;DHT22;43322;52.230;5.702;2024-03-08T02:38:50;1.70;29.80
23719;DHT22;43322;52.230;5.702;2024-03-08T02:41:17;1.80;24.10
23719;DHT22;43322;52.230;5.702;2024-03-08T02:43:44;1.90;25.20
23719;DHT22;43322;52.230;5.702;2024-03-08T02:46:11;1.90;25.40
23719;DHT22;43322;52.230;5.702;2024-03-08T02:48:37;1.80;23.90
23719;DHT22;43322;52.230;5.702;2024-03-08T02:51:05;1.80;23.60
23719;DHT22;43322;52.230;5.702;2024-03-08T02:53:32;1.70;20.50
23719;DHT22;43322;52.230;5.702;2024-03-08T02:56:02;1.80;18.10
23719;DHT22;43322;52.230;5.702;2024-03-08T02:58:28;1.70;13.10
23719;DHT22;43322;52.230;5.702;2024-03-08T03:00:55;1.90;10.20
23719;DHT22;43322;52.230;5.702;2024-03-08T03:03:22;1.80;5.00
23719;DHT22;43322;52.230;5.702;2024-03-08T03:05:49;1.80;6.10
23719;DHT22;43322;52.230;5.702;2024-03-08T03:08:16;1.80;6.90
23719;DHT22;43322;52.230;5.702;2024-03-08T03:10:43;1.80;8.70
23719;DHT22;43322;52.230;5.702;2024-03-08T03:13:11;1.90;1.00
23719;DHT22;43322;52.230;5.702;2024-03-08T03:15:39;2.00;1.00
23719;DHT22;43322;52.230;5.702;2024-03-08T03:18:07;2.00;1.00
23719;DHT22;43322;52.230;5.702;2024-03-08T03:20:34;1.90;1.00
23719;DHT22;43322;52.230;5.702;2024-03-08T03:23:06;2.40;1.00
23719;DHT22;43322;52.230;5.702;2024-03-08T03:25:34;1.90;1.00
23719;DHT22;43322;52.230;5.702;2024-03-08T03:28:01;1.90;1.00
23719;DHT22;43322;52.230;5.702;2024-03-08T03:30:29;1.90;1.00
23719;DHT22;43322;52.230;5.702;2024-03-08T03:32:58;1.90;1.00
23719;DHT22;43322;52.230;5.702;2024-03-08T03:35:26;2.00;1.00
23719;DHT22;43322;52.230;5.702;2024-03-08T03:37:53;1.80;1.00
23719;DHT22;43322;52.230;5.702;2024-03-08T03:40:31;1.90;1.00
23719;DHT22;43322;52.230;5.702;2024-03-08T03:42:58;1.80;1.00
23719;DHT22;43322;52.230;5.702;2024-03-08T03:45:25;1.80;1.00
23719;DHT22;43322;52.230;5.702;2024-03-08T03:47:54;1.80;1.00
23719;DHT22;43322;52.230;5.702;2024-03-08T03:50:21;1.80;1.00
23719;DHT22;43322;52.230;5.702;2024-03-08T03:52:49;1.80;1.00
23719;DHT22;43322;52.230;5.702;2024-03-08T03:55:16;1.90;1.00
23719;DHT22;43322;52.230;5.702;2024-03-08T03:57:43;1.70;1.00
23719;DHT22;43322;52.230;5.702;2024-03-08T04:00:11;1.80;1.00
23719;DHT22;43322;52.230;5.702;2024-03-08T04:02:39;1.70;1.00
23719;DHT22;43322;52.230;5.702;2024-03-08T04:05:09;2.00;1.00
23719;DHT22;43322;52.230;5.702;2024-03-08T04:07:37;1.80;1.00
23719;DHT22;43322;52.230;5.702;2024-03-08T04:10:06;2.10;1.00
23719;DHT22;43322;52.230;5.702;2024-03-08T04:12:33;1.70;1.00
23719;DHT22;43322;52.230;5.702;2024-03-08T04:15:01;1.90;1.00
23719;DHT22;43322;52.230;5.702;2024-03-08T04:17:28;1.80;1.00
23719;DHT22;43322;52.230;5.702;2024-03-08T04:19:55;1.70;1.00
23719;DHT22;43322;52.230;5.702;2024-03-08T04:22:23;1.70;1.00
23719;DHT22;43322;52.230;5.702;2024-03-08T04:24:50;1.70;1.00
23719;DHT22;43322;52.230;5.702;2024-03-08T04:27:17;1.60;1.00
23719;DHT22;43322;52.230;5.702;2024-03-08T04:29:44;1.60;1.00
23719;DHT22;43322;52.230;5.702;2024-03-08T04:32:12;1.60;1.00
23719;DHT22;43322;52.230;5.702;2024-03-08T04:34:39;1.50;1.00
23719;DHT22;43322;52.230;5.702;2024-03-08T04:37:05;1.50;1.00
23719;DHT22;43322;52.230;5.702;2024-03-08T04:39:34;1.60;1.00
23719;DHT22;43322;52.230;5.702;2024-03-08T04:42:02;1.60;1.00
23719;DHT22;43322;52.230;5.702;2024-03-08T04:44:30;1.40;1.00
23719;DHT22;43322;52.230;5.702;2024-03-08T04:46:57;1.50;1.00
23719;DHT22;43322;52.230;5.702;2024-03-08T04:49:24;1.50;1.00
23719;DHT22;43322;52.230;5.702;2024-03-08T04:51:51;1.40;1.00
23719;DHT22;43322;52.230;5.702;2024-03-08T04:54:18;1.40;1.00
23719;DHT22;43322;52.230;5.702;2024-03-08T04:56:46;1.30;1.00
23719;DHT22;43322;52.230;5.702;2024-03-08T04:59:13;1.40;1.00
23719;DHT22;43322;52.230;5.702;2024-03-08T05:01:40;1.40;1.00
23719;DHT22;43322;52.230;5.702;2024-03-08T05:04:07;1.40;1.00
23719;DHT22;43322;52.230;5.702;2024-03-08T05:06:33;1.30;1.00
23719;DHT22;43322;52.230;5.702;2024-03-08T05:09:01;1.50;1.00
23719;DHT22;43322;52.230;5.702;2024-03-08T05:11:38;1.30;1.00
23719;DHT22;43322;52.230;5.702;2024-03-08T05:14:07;1.20;1.00
23719;DHT22;43322;52.230;5.702;2024-03-08T05:16:34;1.40;1.00
23719;DHT22;43322;52.230;5.702;2024-03-08T05:19:01;1.30;1.00
23719;DHT22;43322;52.230;5.702;2024-03-08T05:21:28;1.40;1.00
23719;DHT22;43322;52.230;5.702;2024-03-08T05:23:55;1.40;1.00
23719;DHT22;43322;52.230;5.702;2024-03-08T05:26:22;1.40;1.00
23719;DHT22;43322;52.230;5.702;2024-03-08T05:28:49;1.10;1.00
23719;DHT22;43322;52.230;5.702;2024-03-08T05:31:19;1.30;1.00
23719;DHT22;43322;52.230;5.702;2024-03-08T05:33:47;1.10;1.00
23719;DHT22;43322;52.230;5.702;2024-03-08T05:36:14;1.30;1.00
23719;DHT22;43322;52.230;5.702;2024-03-08T05:38:42;1.30;1.00
23719;DHT22;43322;52.230;5.702;2024-03-08T05:41:09;1.20;1.00
23719;DHT22;43322;52.230;5.702;2024-03-08T05:43:37;1.30;1.00
23719;DHT22;43322;52.230;5.702;2024-03-08T05:46:04;1.20;1.00
23719;DHT22;43322;52.230;5.702;2024-03-08T05:48:32;1.20;1.00
23719;DHT22;43322;52.230;5.702;2024-03-08T05:51:00;1.30;1.00
23719;DHT22;43322;52.230;5.702;2024-03-08T05:53:27;1.30;1.00
23719;DHT22;43322;52.230;5.702;2024-03-08T05:55:57;1.20;1.00
23719;DHT22;43322;52.230;5.702;2024-03-08T05:58:24;1.20;1.00
23719;DHT22;43322;52.230;5.702;2024-03-08T06:00:50;1.20;1.00
23719;DHT22;43322;52.230;5.702;2024-03-08T06:03:17;1.30;1.00
23719;DHT22;43322;52.230;5.702;2024-03-08T06:05:48;1.20;1.00
23719;DHT22;43322;52.230;5.702;2024-03-08T06:08:15;1.20;1.00
23719;DHT22;43322;52.230;5.702;2024-03-08T06:10:42;1.10;1.00
23719;DHT22;43322;52.230;5.702;2024-03-08T06:13:09;0.50;1.00
23719;DHT22;43322;52.230;5.702;2024-03-08T06:15:37;1.10;1.00
23719;DHT22;43322;52.230;5.702;2024-03-08T06:18:04;1.30;1.00
23719;DHT22;43322;52.230;5.702;2024-03-08T06:20:32;1.00;1.00
23719;DHT22;43322;52.230;5.702;2024-03-08T06:23:00;1.10;1.00
23719;DHT22;43322;52.230;5.702;2024-03-08T06:25:26;1.10;1.00
23719;DHT22;43322;52.230;5.702;2024-03-08T06:27:53;1.20;1.00
23719;DHT22;43322;52.230;5.702;2024-03-08T06:30:20;1.10;1.00
23719;DHT22;43322;52.230;5.702;2024-03-08T06:32:47;1.00;1.00
23719;DHT22;43322;52.230;5.702;2024-03-08T06:35:14;1.20;1.00
23719;DHT22;43322;52.230;5.702;2024-03-08T06:37:41;1.20;1.00
23719;DHT22;43322;52.230;5.702;2024-03-08T06:40:12;1.30;1.00
23719;DHT22;43322;52.230;5.702;2024-03-08T06:42:40;1.30;1.00
23719;DHT22;43322;52.230;5.702;2024-03-08T06:45:07;1.40;1.00
23719;DHT22;43322;52.230;5.702;2024-03-08T06:47:35;1.30;1.00
23719;DHT22;43322;52.230;5.702;2024-03-08T06:50:03;1.40;1.00
23719;DHT22;43322;52.230;5.702;2024-03-08T06:52:31;1.20;1.00
23719;DHT22;43322;52.230;5.702;2024-03-08T06:54:58;1.40;1.00
23719;DHT22;43322;52.230;5.702;2024-03-08T06:57:28;1.50;1.00
23719;DHT22;43322;52.230;5.702;2024-03-08T06:59:55;1.70;1.00
23719;DHT22;43322;52.230;5.702;2024-03-08T07:02:22;1.80;1.00
23719;DHT22;43322;52.230;5.702;2024-03-08T07:04:50;1.90;1.00
23719;DHT22;43322;52.230;5.702;2024-03-08T07:07:18;2.00;1.00
23719;DHT22;43322;52.230;5.702;2024-03-08T07:09:46;2.30;1.00
23719;DHT22;43322;52.230;5.702;2024-03-08T07:12:15;2.70;1.00
23719;DHT22;43322;52.230;5.702;2024-03-08T07:14:44;3.10;1.00
23719;DHT22;43322;52.230;5.702;2024-03-08T07:17:11;3.50;1.00
23719;DHT22;43322;52.230;5.702;2024-03-08T07:19:38;3.70;1.00
23719;DHT22;43322;52.230;5.702;2024-03-08T07:22:05;3.90;32.10
23719;DHT22;43322;52.230;5.702;2024-03-08T07:24:34;3.90;99.90
23719;DHT22;43322;52.230;5.702;2024-03-08T07:27:16;4.00;1.00
23719;DHT22;43322;52.230;5.702;2024-03-08T07:29:45;4.20;1.00
23719;DHT22;43322;52.230;5.702;2024-03-08T07:32:12;4.20;1.00
23719;DHT22;43322;52.230;5.702;2024-03-08T07:34:47;4.90;1.00
23719;DHT22;43322;52.230;5.702;2024-03-08T07:37:14;4.40;1.00
23719;DHT22;43322;52.230;5.702;2024-03-08T07:39:41;4.30;99.90
23719;DHT22;43322;52.230;5.702;2024-03-08T07:42:09;4.20;1.00
23719;DHT22;43322;52.230;5.702;2024-03-08T07:44:37;4.00;1.00
23719;DHT22;43322;52.230;5.702;2024-03-08T07:47:05;4.10;99.90
23719;DHT22;43322;52.230;5.702;2024-03-08T07:49:35;4.20;1.00
23719;DHT22;43322;52.230;5.702;2024-03-08T07:52:02;4.50;1.00
23719;DHT22;43322;52.230;5.702;2024-03-08T07:54:32;4.70;99.90
23719;DHT22;43322;52.230;5.702;2024-03-08T07:56:59;4.70;99.90
23719;DHT22;43322;52.230;5.702;2024-03-08T07:59:28;5.10;1.00
23719;DHT22;43322;52.230;5.702;2024-03-08T08:01:56;5.40;99.90
23719;DHT22;43322;52.230;5.702;2024-03-08T08:04:24;5.60;99.90
23719;DHT22;43322;52.230;5.702;2024-03-08T08:06:52;6.30;1.00
23719;DHT22;43322;52.230;5.702;2024-03-08T08:09:20;6.50;1.00
23719;DHT22;43322;52.230;5.702;2024-03-08T08:11:54;6.50;1.00
23719;DHT22;43322;52.230;5.702;2024-03-08T08:14:21;6.30;1.00
23719;DHT22;43322;52.230;5.702;2024-03-08T08:16:48;6.50;1.00
23719;DHT22;43322;52.230;5.702;2024-03-08T08:19:17;5.90;1.00
23719;DHT22;43322;52.230;5.702;2024-03-08T08:21:45;6.00;1.00
23719;DHT22;43322;52.230;5.702;2024-03-08T08:24:12;6.50;1.00
23719;DHT22;43322;52.230;5.702;2024-03-08T08:26:39;6.70;1.00
23719;DHT22;43322;52.230;5.702;2024-03-08T08:29:06;6.60;1.00
23719;DHT22;43322;52.230;5.702;2024-03-08T08:31:33;6.30;1.00
23719;DHT22;43322;52.230;5.702;2024-03-08T08:33:59;6.20;1.00
23719;DHT22;43322;52.230;5.702;2024-03-08T08:36:28;6.80;1.00
23719;DHT22;43322;52.230;5.702;2024-03-08T08:38:58;7.30;1.00
23719;DHT22;43322;52.230;5.702;2024-03-08T08:41:24;7.60;1.00
23719;DHT22;43322;52.230;5.702;2024-03-08T08:43:52;7.10;1.00
23719;DHT22;43322;52.230;5.702;2024-03-08T08:46:20;7.00;1.00
23719;DHT22;43322;52.230;5.702;2024-03-08T08:48:47;7.30;1.00
23719;DHT22;43322;52.230;5.702;2024-03-08T08:51:14;7.60;1.00
23719;DHT22;43322;52.230;5.702;2024-03-08T08:53:41;7.50;99.90
23719;DHT22;43322;52.230;5.702;2024-03-08T08:56:12;7.80;1.00
23719;DHT22;43322;52.230;5.702;2024-03-08T08:58:39;8.90;1.00
23719;DHT22;43322;52.230;5.702;2024-03-08T09:01:08;8.60;99.90
23719;DHT22;43322;52.230;5.702;2024-03-08T09:03:35;8.70;1.00
23719;DHT22;43322;52.230;5.702;2024-03-08T09:06:03;9.00;99.90
23719;DHT22;43322;52.230;5.702;2024-03-08T09:08:30;9.00;1.00
23719;DHT22;43322;52.230;5.702;2024-03-08T09:10:56;9.20;99.90
23719;DHT22;43322;52.230;5.702;2024-03-08T09:13:26;9.60;99.90
23719;DHT22;43322;52.230;5.702;2024-03-08T09:15:53;9.70;99.90
23719;DHT22;43322;52.230;5.702;2024-03-08T09:18:20;9.50;1.00
23719;DHT22;43322;52.230;5.702;2024-03-08T09:20:47;9.20;99.90
23719;DHT22;43322;52.230;5.702;2024-03-08T09:23:13;9.20;99.90
23719;DHT22;43322;52.230;5.702;2024-03-08T09:25:42;8.80;99.90
23719;DHT22;43322;52.230;5.702;2024-03-08T09:28:09;8.40;99.90
23719;DHT22;43322;52.230;5.702;2024-03-08T09:30:38;7.90;1.00
23719;DHT22;43322;52.230;5.702;2024-03-08T09:33:06;7.80;1.00
23719;DHT22;43322;52.230;5.702;2024-03-08T09:35:33;7.60;1.00
23719;DHT22;43322;52.230;5.702;2024-03-08T09:37:59;7.50;1.00
23719;DHT22;43322;52.230;5.702;2024-03-08T09:40:26;7.40;1.00
23719;DHT22;43322;52.230;5.702;2024-03-08T09:42:53;7.60;1.00
23719;DHT22;43322;52.230;5.702;2024-03-08T09:45:21;7.70;1.00
23719;DHT22;43322;52.230;5.702;2024-03-08T09:47:50;7.80;1.00
23719;DHT22;43322;52.230;5.702;2024-03-08T09:50:18;7.80;1.00
23719;DHT22;43322;52.230;5.702;2024-03-08T09:52:48;8.10;1.00
23719;DHT22;43322;52.230;5.702;2024-03-08T09:55:16;8.30;1.00
23719;DHT22;43322;52.230;5.702;2024-03-08T09:57:43;8.60;1.00
23719;DHT22;43322;52.230;5.702;2024-03-08T10:00:32;8.60;99.90
23719;DHT22;43322;52.230;5.702;2024-03-08T10:03:02;8.70;99.90
23719;DHT22;43322;52.230;5.702;2024-03-08T10:05:30;8.90;99.90
23719;DHT22;43322;52.230;5.702;2024-03-08T10:07:58;9.40;1.00
23719;DHT22;43322;52.230;5.702;2024-03-08T10:10:25;9.80;99.90
23719;DHT22;43322;52.230;5.702;2024-03-08T10:12:52;10.10;99.90
23719;DHT22;43322;52.230;5.702;2024-03-08T10:15:19;10.20;99.90
23719;DHT22;43322;52.230;5.702;2024-03-08T10:17:46;10.50;99.90
23719;DHT22;43322;52.230;5.702;2024-03-08T10:20:16;10.80;99.90
23719;DHT22;43322;52.230;5.702;2024-03-08T10:22:44;11.00;99.90
23719;DHT22;43322;52.230;5.702;2024-03-08T10:25:11;11.70;99.90
23719;DHT22;43322;52.230;5.702;2024-03-08T10:27:38;11.50;99.90
23719;DHT22;43322;52.230;5.702;2024-03-08T10:30:07;11.30;99.90
23719;DHT22;43322;52.230;5.702;2024-03-08T10:32:37;10.70;99.90
23719;DHT22;43322;52.230;5.702;2024-03-08T10:35:05;11.00;99.90
23719;DHT22;43322;52.230;5.702;2024-03-08T10:37:42;11.20;99.90
23719;DHT22;43322;52.230;5.702;2024-03-08T10:40:15;11.60;99.90
23719;DHT22;43322;52.230;5.702;2024-03-08T10:42:53;11.10;99.90
23719;DHT22;43322;52.230;5.702;2024-03-08T10:45:30;10.80;99.90
23719;DHT22;43322;52.230;5.702;2024-03-08T10:48:09;10.60;99.90
23719;DHT22;43322;52.230;5.702;2024-03-08T10:50:38;10.60;99.90
23719;DHT22;43322;52.230;5.702;2024-03-08T10:53:06;10.40;99.90
23719;DHT22;43322;52.230;5.702;2024-03-08T10:55:37;10.50;99.90
23719;DHT22;43322;52.230;5.702;2024-03-08T10:58:06;10.70;99.90
23719;DHT22;43322;52.230;5.702;2024-03-08T11:00:33;11.10;99.90
23719;DHT22;43322;52.230;5.702;2024-03-08T11:03:01;11.00;99.90
23719;DHT22;43322;52.230;5.702;2024-03-08T11:05:35;11.40;99.90
23719;DHT22;43322;52.230;5.702;2024-03-08T11:08:09;11.10;99.90
23719;DHT22;43322;52.230;5.702;2024-03-08T11:10:47;11.20;99.90
23719;DHT22;43322;52.230;5.702;2024-03-08T11:13:34;11.70;99.90
23719;DHT22;43322;52.230;5.702;2024-03-08T11:16:01;12.20;99.90
23719;DHT22;43322;52.230;5.702;2024-03-08T11:18:32;12.90;99.90
23719;DHT22;43322;52.230;5.702;2024-03-08T11:21:02;13.40;99.90
23719;DHT22;43322;52.230;5.702;2024-03-08T11:23:32;13.90;99.90
23719;DHT22;43322;52.230;5.702;2024-03-08T11:25:59;14.40;99.90
23719;DHT22;43322;52.230;5.702;2024-03-08T11:28:26;14.90;99.90
23719;DHT22;43322;52.230;5.702;2024-03-08T11:31:22;15.30;99.90
23719;DHT22;43322;52.230;5.702;2024-03-08T11:33:49;15.40;99.90
23719;DHT22;43322;52.230;5.702;2024-03-08T11:36:21;15.20;99.90
23719;DHT22;43322;52.230;5.702;2024-03-08T11:38:50;15.50;99.90
23719;DHT22;43322;52.230;5.702;2024-03-08T11:41:19;15.60;99.90
23719;DHT22;43322;52.230;5.702;2024-03-08T11:43:46;15.80;59.20
23719;DHT22;43322;52.230;5.702;2024-03-08T11:46:14;16.10;97.60
23719;DHT22;43322;52.230;5.702;2024-03-08T11:48:42;16.80;59.10
23719;DHT22;43322;52.230;5.702;2024-03-08T11:51:11;16.90;99.90
23719;DHT22;43322;52.230;5.702;2024-03-08T11:53:39;17.20;99.90
23719;DHT22;43322;52.230;5.702;2024-03-08T11:56:09;17.10;99.90
23719;DHT22;43322;52.230;5.702;2024-03-08T11:58:37;16.80;99.90
23719;DHT22;43322;52.230;5.702;2024-03-08T12:01:04;16.50;99.90
23719;DHT22;43322;52.230;5.702;2024-03-08T12:03:32;16.50;99.90
23719;DHT22;43322;52.230;5.702;2024-03-08T12:05:59;16.50;99.90
23719;DHT22;43322;52.230;5.702;2024-03-08T12:08:27;16.40;99.90
23719;DHT22;43322;52.230;5.702;2024-03-08T12:10:55;16.70;99.90
23719;DHT22;43322;52.230;5.702;2024-03-08T12:13:26;16.40;99.90
23719;DHT22;43322;52.230;5.702;2024-03-08T12:15:56;16.70;99.90
23719;DHT22;43322;52.230;5.702;2024-03-08T12:18:24;16.50;99.90
23719;DHT22;43322;52.230;5.702;2024-03-08T12:20:51;16.10;99.90
23719;DHT22;43322;52.230;5.702;2024-03-08T12:23:17;16.00;99.90
23719;DHT22;43322;52.230;5.702;2024-03-08T12:25:44;16.30;99.90
23719;DHT22;43322;52.230;5.702;2024-03-08T12:28:13;16.50;99.90
23719;DHT22;43322;52.230;5.702;2024-03-08T12:30:47;16.60;99.90
23719;DHT22;43322;52.230;5.702;2024-03-08T12:33:14;16.50;92.10
23719;DHT22;43322;52.230;5.702;2024-03-08T12:35:50;17.30;99.30
23719;DHT22;43322;52.230;5.702;2024-03-08T12:38:20;17.00;93.30
23719;DHT22;43322;52.230;5.702;2024-03-08T12:40:50;16.80;52.30
23719;DHT22;43322;52.230;5.702;2024-03-08T12:43:18;17.00;1.00
23719;DHT22;43322;52.230;5.702;2024-03-08T12:45:47;17.30;1.00
23719;DHT22;43322;52.230;5.702;2024-03-08T12:48:14;17.10;16.30
23719;DHT22;43322;52.230;5.702;2024-03-08T12:50:42;17.20;33.70
23719;DHT22;43322;52.230;5.702;2024-03-08T12:53:11;17.60;33.60
23719;DHT22;43322;52.230;5.702;2024-03-08T12:55:39;17.50;26.90
23719;DHT22;43322;52.230;5.702;2024-03-08T12:58:06;17.50;5.20
23719;DHT22;43322;52.230;5.702;2024-03-08T13:00:33;17.60;11.20
23719;DHT22;43322;52.230;5.702;2024-03-08T13:03:03;17.70;4.70
23719;DHT22;43322;52.230;5.702;2024-03-08T13:05:32;17.20;36.50
23719;DHT22;43322;52.230;5.702;2024-03-08T13:07:58;16.90;43.80
23719;DHT22;43322;52.230;5.702;2024-03-08T13:10:25;16.90;36.30
23719;DHT22;43322;52.230;5.702;2024-03-08T13:12:52;17.00;45.20
23719;DHT22;43322;52.230;5.702;2024-03-08T13:15:20;17.30;35.70
23719;DHT22;43322;52.230;5.702;2024-03-08T13:17:47;17.60;79.70
23719;DHT22;43322;52.230;5.702;2024-03-08T13:20:16;17.60;80.80
23719;DHT22;43322;52.230;5.702;2024-03-08T13:22:45;17.90;99.00
23719;DHT22;43322;52.230;5.702;2024-03-08T13:25:12;18.00;92.10
23719;DHT22;43322;52.230;5.702;2024-03-08T13:27:40;17.70;99.90
23719;DHT22;43322;52.230;5.702;2024-03-08T13:30:08;17.40;99.90
23719;DHT22;43322;52.230;5.702;2024-03-08T13:32:39;17.30;99.90
23719;DHT22;43322;52.230;5.702;2024-03-08T13:35:06;17.00;99.90
23719;DHT22;43322;52.230;5.702;2024-03-08T13:37:39;16.80;99.90
23719;DHT22;43322;52.230;5.702;2024-03-08T13:40:07;16.20;99.90
23719;DHT22;43322;52.230;5.702;2024-03-08T13:42:36;15.60;99.90
23719;DHT22;43322;52.230;5.702;2024-03-08T13:45:04;15.60;99.90
23719;DHT22;43322;52.230;5.702;2024-03-08T13:47:32;15.50;99.90
23719;DHT22;43322;52.230;5.702;2024-03-08T13:49:59;15.40;99.90
23719;DHT22;43322;52.230;5.702;2024-03-08T13:52:27;15.10;99.90
23719;DHT22;43322;52.230;5.702;2024-03-08T13:54:56;14.90;99.90
23719;DHT22;43322;52.230;5.702;2024-03-08T13:57:23;14.70;99.90
23719;DHT22;43322;52.230;5.702;2024-03-08T13:59:50;14.60;99.90
23719;DHT22;43322;52.230;5.702;2024-03-08T14:02:16;14.30;88.00
23719;DHT22;43322;52.230;5.702;2024-03-08T14:04:43;14.10;64.50
23719;DHT22;43322;52.230;5.702;2024-03-08T14:07:10;13.90;90.50
23719;DHT22;43322;52.230;5.702;2024-03-08T14:09:37;13.80;98.90
23719;DHT22;43322;52.230;5.702;2024-03-08T14:12:09;13.50;56.30
23719;DHT22;43322;52.230;5.702;2024-03-08T14:14:36;13.10;44.60
23719;DHT22;43322;52.230;5.702;2024-03-08T14:17:03;13.00;69.20
23719;DHT22;43322;52.230;5.702;2024-03-08T14:19:32;12.70;53.50
23719;DHT22;43322;52.230;5.702;2024-03-08T14:22:00;12.50;77.50
23719;DHT22;43322;52.230;5.702;2024-03-08T14:24:29;12.50;99.90
23719;DHT22;43322;52.230;5.702;2024-03-08T14:26:56;12.50;99.90
23719;DHT22;43322;52.230;5.702;2024-03-08T14:29:25;12.30;99.90
23719;DHT22;43322;52.230;5.702;2024-03-08T14:31:54;11.90;99.90
23719;DHT22;43322;52.230;5.702;2024-03-08T14:34:23;12.20;99.90
23719;DHT22;43322;52.230;5.702;2024-03-08T14:36:52;12.30;99.90
23719;DHT22;43322;52.230;5.702;2024-03-08T14:39:19;12.20;99.90
23719;DHT22;43322;52.230;5.702;2024-03-08T14:41:47;12.30;99.90
23719;DHT22;43322;52.230;5.702;2024-03-08T14:44:15;12.10;99.90
23719;DHT22;43322;52.230;5.702;2024-03-08T14:46:46;12.10;85.70
23719;DHT22;43322;52.230;5.702;2024-03-08T14:49:14;11.80;91.30
23719;DHT22;43322;52.230;5.702;2024-03-08T14:51:40;11.50;99.90
23719;DHT22;43322;52.230;5.702;2024-03-08T14:54:08;11.70;99.90
23719;DHT22;43322;52.230;5.702;2024-03-08T14:56:36;11.70;99.90
23719;DHT22;43322;52.230;5.702;2024-03-08T14:59:02;11.70;99.90
23719;DHT22;43322;52.230;5.702;2024-03-08T15:01:30;12.00;99.90
23719;DHT22;43322;52.230;5.702;2024-03-08T15:04:02;11.80;99.90
23719;DHT22;43322;52.230;5.702;2024-03-08T15:06:34;12.00;56.90
23719;DHT22;43322;52.230;5.702;2024-03-08T15:09:02;11.80;99.90
23719;DHT22;43322;52.230;5.702;2024-03-08T15:11:36;11.30;77.70
23719;DHT22;43322;52.230;5.702;2024-03-08T15:14:04;11.60;99.90
23719;DHT22;43322;52.230;5.702;2024-03-08T15:16:35;12.20;99.90
23719;DHT22;43322;52.230;5.702;2024-03-08T15:19:04;11.70;99.00
23719;DHT22;43322;52.230;5.702;2024-03-08T15:21:31;11.50;99.90
23719;DHT22;43322;52.230;5.702;2024-03-08T15:23:59;11.50;99.90
23719;DHT22;43322;52.230;5.702;2024-03-08T15:26:28;11.70;99.90
23719;DHT22;43322;52.230;5.702;2024-03-08T15:28:55;11.90;99.90
23719;DHT22;43322;52.230;5.702;2024-03-08T15:31:22;12.00;99.90
23719;DHT22;43322;52.230;5.702;2024-03-08T15:33:51;12.00;99.90
23719;DHT22;43322;52.230;5.702;2024-03-08T15:36:27;11.80;99.90
23719;DHT22;43322;52.230;5.702;2024-03-08T15:38:56;11.90;73.60
23719;DHT22;43322;52.230;5.702;2024-03-08T15:41:24;11.70;99.90
23719;DHT22;43322;52.230;5.702;2024-03-08T15:43:52;11.70;99.90
23719;DHT22;43322;52.230;5.702;2024-03-08T15:46:20;11.50;99.90
23719;DHT22;43322;52.230;5.702;2024-03-08T15:48:48;11.60;99.90
23719;DHT22;43322;52.230;5.702;2024-03-08T15:51:17;11.80;99.90
23719;DHT22;43322;52.230;5.702;2024-03-08T15:53:46;11.90;99.90
23719;DHT22;43322;52.230;5.702;2024-03-08T15:56:19;12.00;99.90